Time,TemperatureF,DewpointF,PressureIn,WindDirection,WindDirectionDegrees,WindSpeedMPH,WindSpeedGustMPH,Humidity,HourlyPrecipIn,Conditions,Clouds,dailyrainin,SolarRadiationWatts/m^2,SoftwareType,DateUTC
2013-04-27 00:01:00,55.8,44.6,30.17,WSW,237,6.9,6.9,66,0.00,BKN,OVC,0.00,0.0,WeatherDisplay:10.37,2013-04-27 05:01:00,
2013-04-27 00:06:00,55.8,44.6,30.17,SSW,202,5.8,5.8,66,0.00,-RA,OVC,0.00,0.0,WeatherDisplay:10.37,2013-04-27 05:06:00,
2013-04-27 00:11:00,55.6,44.4,30.17,SW,226,5.8,5.8,66,0.00,-RA,OVC,0.00,0.0,WeatherDisplay:10.37,2013-04-27 05:11:00,
2013-04-27 00:16:00,55.6,44.4,30.17,SW,216,3.5,4.5,66,0.00,-RA,OVC,0.00,0.0,WeatherDisplay:10.37,2013-04-27 05:16:00,
2013-04-27 00:21:00,55.6,44.4,30.17,SSW,203,3.5,3.5,66,0.00,-RA,OVC,0.00,0.0,WeatherDisplay:10.37,2013-04-27 05:21:00,
2013-04-27 00:26:00,55.4,44.2,30.17,SSW,213,5.8,5.8,66,0.00,-RA,OVC,0.00,0.0,WeatherDisplay:10.37,2013-04-27 05:26:00,
2013-04-27 00:31:00,55.4,44.2,30.17,SW,228,3.5,3.5,66,0.00,-RA,OVC,0.00,0.0,WeatherDisplay:10.37,2013-04-27 05:31:00,
2013-04-27 00:36:00,55.2,44.4,30.17,SSW,194,4.6,4.6,67,0.00,-RA,OVC,0.00,0.0,WeatherDisplay:10.37,2013-04-27 05:36:00,
2013-04-27 00:41:00,55.0,44.3,30.17,SW,216,5.8,5.8,67,0.00,-RA,OVC,0.00,0.0,WeatherDisplay:10.37,2013-04-27 05:41:00,
2013-04-27 00:46:00,54.7,43.9,30.17,SSW,209,3.5,3.6,67,0.00,-RA,OVC,0.00,0.0,WeatherDisplay:10.37,2013-04-27 05:46:00,
2013-04-27 00:51:00,54.5,44.2,30.17,South,186,4.6,4.6,68,0.00,-RA,OVC,0.00,0.0,WeatherDisplay:10.37,2013-04-27 05:51:00,
2013-04-27 00:56:00,54.3,44.0,30.17,SSW,197,5.8,5.8,68,0.00,-RA,OVC,0.00,0.0,WeatherDisplay:10.37,2013-04-27 05:56:00,
2013-04-27 01:01:00,54.1,44.2,30.17,SW,216,5.8,5.8,69,0.00,-RA,OVC,0.00,0.0,WeatherDisplay:10.37,2013-04-27 06:01:00,
2013-04-27 01:06:00,54.0,44.4,30.17,SW,222,5.8,5.8,70,0.00,OVC,,0.00,0.0,WeatherDisplay:10.37,2013-04-27 06:06:00,
2013-04-27 01:11:00,54.0,44.8,30.17,SSW,203,3.5,3.5,71,0.00,OVC,,0.00,0.0,WeatherDisplay:10.37,2013-04-27 06:11:00,
2013-04-27 01:16:00,53.8,44.6,30.17,SW,224,5.8,5.8,71,0.00,OVC,,0.00,0.0,WeatherDisplay:10.37,2013-04-27 06:16:00,
2013-04-27 01:21:00,53.8,44.6,30.17,SSW,194,3.5,3.5,71,0.00,OVC,,0.00,0.0,WeatherDisplay:10.37,2013-04-27 06:21:00,
2013-04-27 01:26:00,53.8,44.6,30.17,WSW,244,3.5,0.0,71,0.00,OVC,,0.00,0.0,WeatherDisplay:10.37,2013-04-27 06:26:00,
2013-04-27 01:31:00,53.8,44.6,30.17,South,190,5.8,5.8,71,0.00,OVC,,0.00,0.0,WeatherDisplay:10.37,2013-04-27 06:31:00,
2013-04-27 01:36:00,53.6,44.4,30.17,SSW,193,3.5,3.5,71,0.00,OVC,,0.00,0.0,WeatherDisplay:10.37,2013-04-27 06:36:00,
2013-04-27 01:41:00,53.4,44.6,30.17,SSW,202,3.5,3.5,72,0.00,OVC,,0.00,0.0,WeatherDisplay:10.37,2013-04-27 06:41:00,
2013-04-27 01:46:00,53.2,44.4,30.17,SSW,209,4.6,4.6,72,0.00,OVC,,0.00,0.0,WeatherDisplay:10.37,2013-04-27 06:46:00,
2013-04-27 01:51:00,52.9,44.1,30.17,SSW,193,3.5,3.5,72,0.00,OVC,,0.00,0.0,WeatherDisplay:10.37,2013-04-27 06:51:00,
2013-04-27 01:56:00,52.3,43.6,30.17,SW,216,2.3,0.0,72,0.00,OVC,,0.00,0.0,WeatherDisplay:10.37,2013-04-27 06:56:00,
2013-04-27 02:01:00,52.0,43.2,30.17,SSW,212,3.5,3.5,72,0.00,OVC,,0.00,0.0,WeatherDisplay:10.37,2013-04-27 07:01:00,
2013-04-27 02:06:00,51.8,43.4,30.17,SSW,193,3.5,3.5,73,0.00,FEW,OVC,0.00,0.0,WeatherDisplay:10.37,2013-04-27 07:06:00,
2013-04-27 02:11:00,51.4,43.4,30.17,South,185,3.5,3.5,74,0.00,FEW,OVC,0.00,0.0,WeatherDisplay:10.37,2013-04-27 07:11:00,
2013-04-27 02:16:00,51.3,43.3,30.17,SSW,213,3.5,3.5,74,0.00,FEW,OVC,0.00,0.0,WeatherDisplay:10.37,2013-04-27 07:16:00,
2013-04-27 02:21:00,50.9,42.9,30.17,South,175,5.8,5.8,74,0.00,FEW,OVC,0.00,0.0,WeatherDisplay:10.37,2013-04-27 07:21:00,
2013-04-27 02:26:00,50.7,43.1,30.17,SSW,192,3.5,3.5,75,0.00,FEW,OVC,0.00,0.0,WeatherDisplay:10.37,2013-04-27 07:26:00,
2013-04-27 02:31:00,50.5,42.9,30.17,SSE,166,3.5,3.5,75,0.00,FEW,OVC,0.00,0.0,WeatherDisplay:10.37,2013-04-27 07:31:00,
2013-04-27 02:36:00,50.4,42.7,30.17,SSW,198,2.3,2.3,75,0.00,FEW,OVC,0.00,0.0,WeatherDisplay:10.37,2013-04-27 07:36:00,
2013-04-27 02:41:00,50.2,42.9,30.17,SSW,203,3.5,3.5,76,0.00,FEW,OVC,0.00,0.0,WeatherDisplay:10.37,2013-04-27 07:41:00,
2013-04-27 02:46:00,50.0,42.7,30.17,SSW,207,3.5,3.5,76,0.00,FEW,OVC,0.00,0.0,WeatherDisplay:10.37,2013-04-27 07:46:00,
2013-04-27 02:51:00,50.0,42.7,30.17,SW,230,3.6,3.6,76,0.00,FEW,OVC,0.00,0.0,WeatherDisplay:10.37,2013-04-27 07:51:00,
2013-04-27 02:56:00,49.8,42.9,30.17,SSW,196,4.6,4.6,77,0.00,FEW,OVC,0.00,0.0,WeatherDisplay:10.37,2013-04-27 07:56:00,
2013-04-27 03:01:00,49.8,43.2,30.17,SSW,206,3.5,3.5,78,0.00,FEW,OVC,0.00,0.0,WeatherDisplay:10.37,2013-04-27 08:01:00,
2013-04-27 03:06:00,49.8,43.2,30.17,SSW,192,3.5,3.5,78,0.00,CLR,OVC,0.00,0.0,WeatherDisplay:10.37,2013-04-27 08:06:00,
2013-04-27 03:11:00,49.8,43.2,30.17,South,185,4.6,4.6,78,0.00,CLR,OVC,0.00,0.0,WeatherDisplay:10.37,2013-04-27 08:11:00,
2013-04-27 03:15:00,49.6,43.4,30.17,SSW,202,4.6,4.6,79,0.00,CLR,OVC,0.00,0.0,WeatherDisplay:10.37,2013-04-27 08:15:00,
2013-04-27 03:21:00,49.6,43.4,30.17,SSW,197,5.8,5.8,79,0.00,CLR,OVC,0.00,0.0,WeatherDisplay:10.37,2013-04-27 08:21:00,
2013-04-27 03:25:00,49.5,43.2,30.17,SSW,204,3.5,3.5,79,0.00,CLR,OVC,0.00,0.0,WeatherDisplay:10.37,2013-04-27 08:25:00,
2013-04-27 03:30:00,49.1,42.9,30.17,WSW,246,3.5,3.5,79,0.00,CLR,OVC,0.00,0.0,WeatherDisplay:10.37,2013-04-27 08:30:00,
2013-04-27 03:35:00,48.9,43.0,30.17,SW,222,3.5,3.5,80,0.00,CLR,OVC,0.00,0.0,WeatherDisplay:10.37,2013-04-27 08:35:00,
2013-04-27 03:40:00,48.7,42.8,30.17,SSW,198,3.5,3.5,80,0.00,CLR,OVC,0.00,0.0,WeatherDisplay:10.37,2013-04-27 08:40:00,
2013-04-27 03:45:00,48.6,42.7,30.17,South,183,5.8,5.8,80,0.00,CLR,OVC,0.00,0.0,WeatherDisplay:10.37,2013-04-27 08:45:00,
2013-04-27 03:50:00,48.4,42.8,30.17,SSW,196,3.5,3.5,81,0.00,CLR,OVC,0.00,0.0,WeatherDisplay:10.37,2013-04-27 08:50:00,
2013-04-27 03:55:00,48.2,42.6,30.17,SSW,207,4.9,4.9,81,0.00,CLR,OVC,0.00,0.0,WeatherDisplay:10.37,2013-04-27 08:55:00,
2013-04-27 04:00:00,48.2,43.0,30.17,SSW,197,3.5,3.5,82,0.00,CLR,OVC,0.00,0.0,WeatherDisplay:10.37,2013-04-27 09:00:00,
2013-04-27 04:05:00,48.2,43.3,30.17,South,186,5.8,5.8,83,0.00,CLR,OVC,0.00,0.0,WeatherDisplay:10.37,2013-04-27 09:05:00,
2013-04-27 04:10:00,48.2,43.6,30.17,SSW,203,4.6,4.6,84,0.00,CLR,OVC,0.00,0.0,WeatherDisplay:10.37,2013-04-27 09:10:00,
2013-04-27 04:15:00,48.2,43.9,30.17,SSW,193,5.8,5.8,85,0.00,CLR,OVC,0.00,0.0,WeatherDisplay:10.37,2013-04-27 09:15:00,
2013-04-27 04:20:00,48.0,44.0,30.17,South,184,4.6,4.6,86,0.00,CLR,OVC,0.00,0.0,WeatherDisplay:10.37,2013-04-27 09:20:00,
2013-04-27 04:25:00,48.0,44.3,30.17,SSW,208,3.5,3.6,87,0.00,CLR,OVC,0.00,0.0,WeatherDisplay:10.37,2013-04-27 09:25:00,
2013-04-27 04:30:00,48.0,44.6,30.17,South,173,5.8,5.8,88,0.00,CLR,OVC,0.00,0.0,WeatherDisplay:10.37,2013-04-27 09:30:00,
2013-04-27 04:35:00,48.0,44.6,30.17,SW,230,5.8,5.8,88,0.00,CLR,OVC,0.00,0.0,WeatherDisplay:10.37,2013-04-27 09:35:00,
2013-04-27 04:40:00,47.8,44.8,30.17,SSW,195,5.8,5.8,89,0.00,CLR,OVC,0.00,0.0,WeatherDisplay:10.37,2013-04-27 09:40:00,
2013-04-27 04:45:00,47.8,44.8,30.17,South,174,5.8,5.8,89,0.00,CLR,OVC,0.00,0.0,WeatherDisplay:10.37,2013-04-27 09:45:00,
2013-04-27 04:50:00,47.7,44.6,30.17,SSW,204,5.8,5.8,89,0.00,CLR,OVC,0.00,0.0,WeatherDisplay:10.37,2013-04-27 09:50:00,
2013-04-27 04:55:00,47.7,44.9,30.17,South,191,4.6,4.6,90,0.00,CLR,OVC,0.00,0.0,WeatherDisplay:10.37,2013-04-27 09:55:00,
2013-04-27 05:00:00,47.7,45.2,30.14,South,172,5.8,5.8,91,0.00,CLR,OVC,0.00,0.0,WeatherDisplay:10.37,2013-04-27 10:00:00,
2013-04-27 05:05:00,47.7,45.5,30.14,South,189,5.8,5.8,92,0.00,CLR,OVC,0.00,0.0,WeatherDisplay:10.37,2013-04-27 10:05:00,
2013-04-27 05:10:00,47.7,45.5,30.14,SSW,203,5.8,5.8,92,0.00,CLR,OVC,0.00,0.0,WeatherDisplay:10.37,2013-04-27 10:10:00,
2013-04-27 05:15:00,47.7,45.5,30.17,South,186,5.8,5.8,92,0.00,CLR,OVC,0.00,0.0,WeatherDisplay:10.37,2013-04-27 10:15:00,
2013-04-27 05:20:00,47.5,45.6,30.17,SSW,195,5.8,5.8,93,0.00,CLR,OVC,0.00,0.0,WeatherDisplay:10.37,2013-04-27 10:20:00,
2013-04-27 05:25:00,47.3,45.4,30.17,SSW,198,8.1,8.1,93,0.00,CLR,OVC,0.00,0.0,WeatherDisplay:10.37,2013-04-27 10:25:00,
2013-04-27 05:30:00,47.3,45.4,30.17,South,177,5.8,5.8,93,0.00,CLR,OVC,0.00,0.0,WeatherDisplay:10.37,2013-04-27 10:30:00,
2013-04-27 05:35:00,47.1,45.5,30.17,South,188,3.5,3.6,94,0.00,CLR,OVC,0.00,0.0,WeatherDisplay:10.37,2013-04-27 10:35:00,
2013-04-27 05:40:00,46.9,45.0,30.17,South,175,6.9,6.9,93,0.00,CLR,OVC,0.00,0.0,WeatherDisplay:10.37,2013-04-27 10:40:00,
2013-04-27 05:45:00,46.9,45.3,30.17,SSW,194,6.9,6.9,94,0.00,CLR,OVC,0.00,0.0,WeatherDisplay:10.37,2013-04-27 10:45:00,
2013-04-27 05:50:00,46.8,45.1,30.17,South,172,4.6,4.6,94,0.00,CLR,OVC,0.00,0.0,WeatherDisplay:10.37,2013-04-27 10:50:00,
2013-04-27 05:55:00,46.6,44.9,30.17,South,185,5.8,5.8,94,0.00,CLR,OVC,0.00,0.0,WeatherDisplay:10.37,2013-04-27 10:55:00,
2013-04-27 06:00:00,46.6,45.2,30.17,WSW,240,4.6,4.6,95,0.00,CLR,OVC,0.00,0.0,WeatherDisplay:10.37,2013-04-27 11:00:00,
2013-04-27 06:05:00,46.6,45.2,30.17,SSW,205,3.5,3.6,95,0.00,CLR,OVC,0.00,0.0,WeatherDisplay:10.37,2013-04-27 11:05:00,
2013-04-27 06:10:00,46.4,45.3,30.17,SSW,209,6.9,6.9,96,0.00,CLR,OVC,0.00,0.0,WeatherDisplay:10.37,2013-04-27 11:10:00,
2013-04-27 06:15:00,46.4,45.3,30.17,SSW,207,3.5,3.5,96,0.00,CLR,OVC,0.00,0.0,WeatherDisplay:10.37,2013-04-27 11:15:00,
2013-04-27 06:20:00,46.4,45.3,30.17,SSW,202,5.8,5.8,96,0.00,CLR,OVC,0.00,0.0,WeatherDisplay:10.37,2013-04-27 11:20:00,
2013-04-27 06:25:00,46.2,45.4,30.17,SW,216,5.8,5.8,97,0.00,CLR,OVC,0.00,0.0,WeatherDisplay:10.37,2013-04-27 11:25:00,
2013-04-27 06:30:00,46.2,45.4,30.17,SW,216,8.1,8.1,97,0.00,CLR,OVC,0.00,0.0,WeatherDisplay:10.37,2013-04-27 11:30:00,
2013-04-27 06:35:00,46.4,45.6,30.17,SW,223,5.8,5.8,97,0.00,CLR,OVC,0.00,0.0,WeatherDisplay:10.37,2013-04-27 11:35:00,
2013-04-27 06:40:00,46.4,45.9,30.17,SSW,200,5.8,5.8,98,0.00,CLR,OVC,0.00,0.0,WeatherDisplay:10.37,2013-04-27 11:40:00,
2013-04-27 06:45:00,46.6,46.0,30.17,SSW,208,5.8,5.8,98,0.00,CLR,OVC,0.00,0.0,WeatherDisplay:10.37,2013-04-27 11:45:00,
2013-04-27 06:50:00,46.6,46.3,30.17,SSW,201,5.8,5.8,99,0.00,CLR,OVC,0.00,0.0,WeatherDisplay:10.37,2013-04-27 11:50:00,
2013-04-27 06:55:00,46.8,46.5,30.17,SW,219,8.1,8.1,99,0.00,CLR,OVC,0.00,0.0,WeatherDisplay:10.37,2013-04-27 11:55:00,
2013-04-27 07:00:00,46.9,46.9,30.17,SW,221,8.1,8.1,100,0.00,CLR,OVC,0.00,0.0,WeatherDisplay:10.37,2013-04-27 12:00:00,
2013-04-27 07:05:00,47.3,47.3,30.17,SW,227,5.8,5.8,100,0.00,CLR,OVC,0.00,0.0,WeatherDisplay:10.37,2013-04-27 12:05:00,
2013-04-27 07:10:00,47.5,47.5,30.17,SSW,206,4.6,4.6,100,0.00,CLR,OVC,0.00,0.0,WeatherDisplay:10.37,2013-04-27 12:10:00,
2013-04-27 07:15:00,47.8,47.8,30.17,WSW,238,5.8,5.8,100,0.00,CLR,OVC,0.00,0.0,WeatherDisplay:10.37,2013-04-27 12:15:00,
2013-04-27 07:20:00,48.2,48.2,30.17,South,189,5.8,5.8,100,0.00,CLR,OVC,0.00,0.0,WeatherDisplay:10.37,2013-04-27 12:20:00,
2013-04-27 07:25:00,48.6,48.6,30.17,SW,219,4.6,4.6,100,0.00,CLR,OVC,0.00,0.0,WeatherDisplay:10.37,2013-04-27 12:25:00,
2013-04-27 07:30:00,48.7,48.7,30.17,SSW,205,5.8,5.8,100,0.00,CLR,OVC,0.00,0.0,WeatherDisplay:10.37,2013-04-27 12:30:00,
2013-04-27 07:35:00,49.3,49.3,30.17,South,172,6.3,6.3,100,0.00,CLR,OVC,0.00,0.0,WeatherDisplay:10.37,2013-04-27 12:35:00,
2013-04-27 07:40:00,49.8,49.8,30.17,South,189,5.8,5.8,100,0.00,CLR,OVC,0.00,0.0,WeatherDisplay:10.37,2013-04-27 12:40:00,
2013-04-27 07:45:00,50.2,50.2,30.17,SSW,195,8.1,8.1,100,0.00,CLR,OVC,0.00,0.0,WeatherDisplay:10.37,2013-04-27 12:45:00,
2013-04-27 07:50:00,50.9,50.9,30.17,SSW,194,5.8,5.8,100,0.00,CLR,OVC,0.00,0.0,WeatherDisplay:10.37,2013-04-27 12:50:00,
2013-04-27 07:55:00,51.4,51.2,30.17,SSW,209,8.1,8.1,99,0.00,CLR,OVC,0.00,0.0,WeatherDisplay:10.37,2013-04-27 12:55:00,
2013-04-27 08:00:00,52.0,51.4,30.17,WSW,243,5.8,5.8,98,0.00,CLR,OVC,0.00,0.0,WeatherDisplay:10.37,2013-04-27 13:00:00,
2013-04-27 08:05:00,52.5,51.7,30.17,SW,234,8.1,8.1,97,0.00,CLR,OVC,0.00,0.0,WeatherDisplay:10.37,2013-04-27 13:05:00,
2013-04-27 08:10:00,53.1,52.0,30.17,SSW,209,5.8,5.8,96,0.00,CLR,OVC,0.00,0.0,WeatherDisplay:10.37,2013-04-27 13:10:00,
2013-04-27 08:15:00,53.6,51.9,30.17,West,266,5.8,5.8,94,0.00,CLR,OVC,0.00,0.0,WeatherDisplay:10.37,2013-04-27 13:15:00,
2013-04-27 08:20:00,54.0,51.7,30.17,SW,215,9.2,9.2,92,0.00,CLR,OVC,0.00,0.0,WeatherDisplay:10.37,2013-04-27 13:20:00,
2013-04-27 08:25:00,54.5,51.6,30.17,SW,232,5.8,5.8,90,0.00,CLR,OVC,0.00,0.0,WeatherDisplay:10.37,2013-04-27 13:25:00,
2013-04-27 08:30:00,55.0,50.9,30.17,WSW,252,5.8,5.8,86,0.00,CLR,OVC,0.00,0.0,WeatherDisplay:10.37,2013-04-27 13:30:00,
2013-04-27 08:35:00,55.6,50.2,30.17,WSW,253,8.1,8.1,82,0.00,CLR,OVC,0.00,0.0,WeatherDisplay:10.37,2013-04-27 13:35:00,
2013-04-27 08:40:00,55.9,49.9,30.17,SSW,195,8.1,8.1,80,0.00,CLR,OVC,0.00,0.0,WeatherDisplay:10.37,2013-04-27 13:40:00,
2013-04-27 08:48:00,56.3,49.2,30.17,SW,214,10.4,10.4,77,0.00,CLR,OVC,0.00,0.0,WeatherDisplay:10.37,2013-04-27 13:48:00,
2013-04-27 08:53:00,56.7,49.2,30.17,SSW,202,5.8,5.8,76,0.00,CLR,OVC,0.00,0.0,WeatherDisplay:10.37,2013-04-27 13:53:00,
2013-04-27 08:58:00,56.8,49.0,30.17,SSW,210,10.4,10.4,75,0.00,CLR,OVC,0.00,0.0,WeatherDisplay:10.37,2013-04-27 13:58:00,
2013-04-27 09:03:00,57.2,49.0,30.17,WSW,237,5.8,5.8,74,0.00,CLR,OVC,0.00,0.0,WeatherDisplay:10.37,2013-04-27 14:03:00,
2013-04-27 09:08:00,57.6,49.0,30.17,SW,230,5.8,5.8,73,0.00,CLR,OVC,0.00,0.0,WeatherDisplay:10.37,2013-04-27 14:08:00,
2013-04-27 09:13:00,57.9,49.3,30.17,South,180,5.8,5.8,73,0.00,CLR,OVC,0.00,0.0,WeatherDisplay:10.37,2013-04-27 14:13:00,
2013-04-27 09:18:00,58.1,49.1,30.17,West,266,5.8,5.8,72,0.00,CLR,OVC,0.00,0.0,WeatherDisplay:10.37,2013-04-27 14:18:00,
2013-04-27 09:23:00,58.6,49.3,30.17,South,180,8.1,8.1,71,0.00,CLR,OVC,0.00,0.0,WeatherDisplay:10.37,2013-04-27 14:23:00,
2013-04-27 09:28:00,58.8,49.4,30.17,SSW,206,8.1,8.1,71,0.00,CLR,OVC,0.00,0.0,WeatherDisplay:10.37,2013-04-27 14:28:00,
2013-04-27 09:33:00,59.2,49.4,30.17,South,175,5.8,5.8,70,0.00,CLR,OVC,0.00,0.0,WeatherDisplay:10.37,2013-04-27 14:33:00,
2013-04-27 09:38:00,59.4,48.8,30.17,SSW,210,5.8,5.8,68,0.00,CLR,OVC,0.00,0.0,WeatherDisplay:10.37,2013-04-27 14:38:00,
2013-04-27 09:43:00,59.7,49.1,30.17,WSW,253,5.8,5.8,68,0.00,CLR,OVC,0.00,0.0,WeatherDisplay:10.37,2013-04-27 14:43:00,
2013-04-27 09:48:00,59.9,48.9,30.17,WSW,244,3.5,4.0,67,0.00,CLR,OVC,0.00,0.0,WeatherDisplay:10.37,2013-04-27 14:48:00,
2013-04-27 09:53:00,60.4,49.4,30.17,SW,232,5.8,5.8,67,0.00,CLR,OVC,0.00,0.0,WeatherDisplay:10.37,2013-04-27 14:53:00,
2013-04-27 09:58:00,60.6,49.2,30.17,South,190,5.8,5.8,66,0.00,CLR,OVC,0.00,0.0,WeatherDisplay:10.37,2013-04-27 14:58:00,
2013-04-27 10:03:00,61.0,48.7,30.17,WSW,248,3.5,3.5,64,0.00,CLR,OVC,0.00,0.0,WeatherDisplay:10.37,2013-04-27 15:03:00,
2013-04-27 10:08:00,61.3,49.1,30.17,SSW,201,6.9,6.9,64,0.00,CLR,OVC,0.00,0.0,WeatherDisplay:10.37,2013-04-27 15:08:00,
2013-04-27 10:13:00,61.9,49.1,30.17,WSW,238,8.1,8.1,63,0.00,CLR,OVC,0.00,0.0,WeatherDisplay:10.37,2013-04-27 15:13:00,
2013-04-27 10:18:00,62.2,49.1,30.17,SSW,212,5.8,5.8,62,0.00,CLR,OVC,0.00,0.0,WeatherDisplay:10.37,2013-04-27 15:18:00,
2013-04-27 10:23:00,63.0,49.7,30.17,SSW,212,8.1,8.1,62,0.00,CLR,OVC,0.00,0.0,WeatherDisplay:10.37,2013-04-27 15:23:00,
2013-04-27 10:28:00,63.5,49.8,30.14,SW,230,5.8,5.8,61,0.00,CLR,OVC,0.00,0.0,WeatherDisplay:10.37,2013-04-27 15:28:00,
2013-04-27 10:33:00,64.0,50.3,30.14,SSW,213,4.6,0.0,61,0.00,CLR,OVC,0.00,0.0,WeatherDisplay:10.37,2013-04-27 15:33:00,
2013-04-27 10:38:00,64.6,50.4,30.14,SW,235,3.5,3.5,60,0.00,CLR,OVC,0.00,0.0,WeatherDisplay:10.37,2013-04-27 15:38:00,
2013-04-27 10:43:00,64.8,50.1,30.14,NW,318,3.5,3.5,59,0.00,CLR,OVC,0.00,0.0,WeatherDisplay:10.37,2013-04-27 15:43:00,
2013-04-27 10:48:00,64.6,50.4,30.14,SW,217,5.8,5.8,60,0.00,CLR,OVC,0.00,0.0,WeatherDisplay:10.37,2013-04-27 15:48:00,
2013-04-27 10:53:00,65.3,51.1,30.14,South,182,5.8,5.8,60,0.00,CLR,OVC,0.00,0.0,WeatherDisplay:10.37,2013-04-27 15:53:00,
2013-04-27 10:58:00,66.0,51.3,30.14,West,270,5.8,5.8,59,0.00,CLR,OVC,0.00,0.0,WeatherDisplay:10.37,2013-04-27 15:58:00,
2013-04-27 11:03:00,65.5,50.8,30.14,SW,228,4.6,4.6,59,0.00,CLR,OVC,0.00,0.0,WeatherDisplay:10.37,2013-04-27 16:03:00,
2013-04-27 11:08:00,65.8,51.1,30.14,SSW,199,7.2,7.2,59,0.00,CLR,OVC,0.00,0.0,WeatherDisplay:10.37,2013-04-27 16:08:00,
2013-04-27 11:13:00,66.9,51.7,30.14,SW,225,5.8,5.8,58,0.00,CLR,OVC,0.00,0.0,WeatherDisplay:10.37,2013-04-27 16:13:00,
2013-04-27 11:18:00,67.6,52.3,30.14,SSW,212,5.8,5.8,58,0.00,CLR,OVC,0.00,0.0,WeatherDisplay:10.37,2013-04-27 16:18:00,
2013-04-27 11:23:00,68.4,52.5,30.14,SW,216,6.9,6.9,57,0.00,CLR,OVC,0.00,0.0,WeatherDisplay:10.37,2013-04-27 16:23:00,
2013-04-27 11:28:00,68.5,51.7,30.14,WSW,240,5.8,5.8,55,0.00,CLR,OVC,0.00,0.0,WeatherDisplay:10.37,2013-04-27 16:28:00,
2013-04-27 11:33:00,68.2,51.9,30.14,SSW,192,8.1,8.1,56,0.00,CLR,OVC,0.00,0.0,WeatherDisplay:10.37,2013-04-27 16:33:00,
2013-04-27 11:38:00,68.5,51.7,30.14,SSW,206,5.4,5.4,55,0.00,CLR,OVC,0.00,0.0,WeatherDisplay:10.37,2013-04-27 16:38:00,
2013-04-27 11:43:00,69.1,52.2,30.14,South,186,8.1,8.1,55,0.00,CLR,OVC,0.00,0.0,WeatherDisplay:10.37,2013-04-27 16:43:00,
2013-04-27 11:48:00,69.8,51.9,30.14,SW,220,6.9,7.6,53,0.00,CLR,OVC,0.00,0.0,WeatherDisplay:10.37,2013-04-27 16:48:00,
2013-04-27 11:53:00,70.2,52.2,30.14,WSW,239,4.6,4.6,53,0.00,CLR,OVC,0.00,0.0,WeatherDisplay:10.37,2013-04-27 16:53:00,
2013-04-27 12:00:00,70.5,52.0,30.14,SSW,201,9.2,9.2,52,0.00,CLR,OVC,0.00,0.0,WeatherDisplay:10.37,2013-04-27 17:00:00,
2013-04-27 12:05:00,70.7,51.7,30.14,SSW,199,5.8,5.8,51,0.00,CLR,OVC,0.00,0.0,WeatherDisplay:10.37,2013-04-27 17:05:00,
2013-04-27 12:10:00,70.7,51.7,30.14,SSW,202,8.1,8.1,51,0.00,CLR,OVC,0.00,0.0,WeatherDisplay:10.37,2013-04-27 17:10:00,
2013-04-27 12:15:00,70.7,51.1,30.11,WSW,240,8.1,8.1,50,0.00,CLR,OVC,0.00,0.0,WeatherDisplay:10.37,2013-04-27 17:15:00,
2013-04-27 12:20:00,71.1,51.5,30.11,WSW,249,6.3,6.3,50,0.00,CLR,OVC,0.00,0.0,WeatherDisplay:10.37,2013-04-27 17:20:00,
2013-04-27 12:25:00,71.4,51.8,30.11,SSW,195,9.2,9.2,50,0.00,CLR,OVC,0.00,0.0,WeatherDisplay:10.37,2013-04-27 17:25:00,
2013-04-27 12:29:00,71.6,52.0,30.11,SW,229,10.4,10.4,50,0.00,CLR,OVC,0.00,0.0,WeatherDisplay:10.37,2013-04-27 17:29:00,
2013-04-27 12:34:00,72.0,52.3,30.11,SW,230,9.2,9.2,50,0.00,CLR,OVC,0.00,0.0,WeatherDisplay:10.37,2013-04-27 17:34:00,
2013-04-27 12:39:00,72.0,51.8,30.11,SSE,158,9.2,9.2,49,0.00,CLR,OVC,0.00,0.0,WeatherDisplay:10.37,2013-04-27 17:39:00,
2013-04-27 12:44:00,72.0,51.8,30.11,SW,220,8.1,8.1,49,0.00,CLR,OVC,0.00,0.0,WeatherDisplay:10.37,2013-04-27 17:44:00,
2013-04-27 12:49:00,72.5,52.8,30.11,SW,218,8.1,8.1,50,0.00,CLR,OVC,0.00,0.0,WeatherDisplay:10.37,2013-04-27 17:49:00,
2013-04-27 12:54:00,72.9,52.6,30.11,South,191,5.8,5.8,49,0.00,CLR,OVC,0.00,0.0,WeatherDisplay:10.37,2013-04-27 17:54:00,
2013-04-27 12:59:00,72.7,52.4,30.11,SSW,195,8.1,8.1,49,0.00,CLR,OVC,0.00,0.0,WeatherDisplay:10.37,2013-04-27 17:59:00,
2013-04-27 13:04:00,72.3,52.1,30.11,SW,218,5.8,5.8,49,0.00,CLR,OVC,0.00,0.0,WeatherDisplay:10.37,2013-04-27 18:04:00,
2013-04-27 13:09:00,72.7,52.4,30.11,SW,226,5.8,5.8,49,0.00,CLR,OVC,0.00,0.0,WeatherDisplay:10.37,2013-04-27 18:09:00,
2013-04-27 13:14:00,73.2,52.9,30.11,South,190,8.1,8.1,49,0.00,CLR,OVC,0.00,0.0,WeatherDisplay:10.37,2013-04-27 18:14:00,
2013-04-27 13:19:00,73.8,52.8,30.11,South,172,5.8,5.8,48,0.00,CLR,OVC,0.00,0.0,WeatherDisplay:10.37,2013-04-27 18:19:00,
2013-04-27 13:24:00,74.5,53.5,30.11,South,185,9.2,9.2,48,0.00,CLR,OVC,0.00,0.0,WeatherDisplay:10.37,2013-04-27 18:24:00,
2013-04-27 13:29:00,74.7,53.7,30.11,WSW,240,5.8,5.8,48,0.00,CLR,OVC,0.00,0.0,WeatherDisplay:10.37,2013-04-27 18:29:00,
2013-04-27 13:34:00,73.8,52.3,30.11,South,178,6.9,6.9,47,0.00,CLR,OVC,0.00,0.0,WeatherDisplay:10.37,2013-04-27 18:34:00,
2013-04-27 13:39:00,73.2,52.3,30.11,SSW,197,5.8,5.8,48,0.00,CLR,OVC,0.00,0.0,WeatherDisplay:10.37,2013-04-27 18:39:00,
2013-04-27 13:44:00,73.8,52.8,30.11,South,189,5.8,5.8,48,0.00,CLR,OVC,0.00,0.0,WeatherDisplay:10.37,2013-04-27 18:44:00,
2013-04-27 13:49:00,74.1,52.6,30.11,SSW,195,5.8,5.8,47,0.00,CLR,OVC,0.00,0.0,WeatherDisplay:10.37,2013-04-27 18:49:00,
2013-04-27 13:54:00,74.5,52.9,30.11,SSE,163,5.8,5.8,47,0.00,CLR,OVC,0.00,0.0,WeatherDisplay:10.37,2013-04-27 18:54:00,
2013-04-27 13:59:00,75.6,53.9,30.08,SSW,211,9.2,9.2,47,0.00,CLR,OVC,0.00,0.0,WeatherDisplay:10.37,2013-04-27 18:59:00,
2013-04-27 14:04:00,75.9,53.6,30.08,SSW,194,5.8,5.8,46,0.00,CLR,OVC,0.00,0.0,WeatherDisplay:10.37,2013-04-27 19:04:00,
2013-04-27 14:09:00,75.2,53.0,30.08,South,191,3.5,3.5,46,0.00,CLR,OVC,0.00,0.0,WeatherDisplay:10.37,2013-04-27 19:09:00,
2013-04-27 14:14:00,73.8,52.3,30.08,SW,214,5.8,5.8,47,0.00,CLR,OVC,0.00,0.0,WeatherDisplay:10.37,2013-04-27 19:14:00,
2013-04-27 14:19:00,72.9,51.4,30.08,South,174,5.8,5.8,47,0.00,CLR,OVC,0.00,0.0,WeatherDisplay:10.37,2013-04-27 19:19:00,
2013-04-27 14:24:00,72.3,51.0,30.08,SW,220,8.1,8.1,47,0.00,CLR,OVC,0.00,0.0,WeatherDisplay:10.37,2013-04-27 19:24:00,
2013-04-27 14:29:00,72.7,51.3,30.08,SSW,200,9.2,9.2,47,0.00,CLR,OVC,0.00,0.0,WeatherDisplay:10.37,2013-04-27 19:29:00,
2013-04-27 14:34:00,73.0,51.6,30.08,SW,232,5.8,5.8,47,0.00,CLR,OVC,0.00,0.0,WeatherDisplay:10.37,2013-04-27 19:34:00,
2013-04-27 14:39:00,72.7,51.3,30.08,SSW,210,4.6,4.6,47,0.00,CLR,OVC,0.00,0.0,WeatherDisplay:10.37,2013-04-27 19:39:00,
2013-04-27 14:44:00,72.3,51.0,30.08,SSW,195,3.5,0.0,47,0.00,CLR,OVC,0.00,0.0,WeatherDisplay:10.37,2013-04-27 19:44:00,
2013-04-27 14:49:00,72.9,51.4,30.08,SE,137,10.4,10.4,47,0.00,CLR,OVC,0.00,0.0,WeatherDisplay:10.37,2013-04-27 19:49:00,
2013-04-27 14:54:00,72.9,51.4,30.08,South,180,8.1,8.1,47,0.00,CLR,OVC,0.00,0.0,WeatherDisplay:10.37,2013-04-27 19:54:00,
2013-04-27 14:59:00,72.9,51.4,30.08,South,173,5.8,5.8,47,0.00,CLR,OVC,0.00,0.0,WeatherDisplay:10.37,2013-04-27 19:59:00,
2013-04-27 15:04:00,72.9,51.4,30.08,SSW,203,9.2,9.2,47,0.00,CLR,OVC,0.00,0.0,WeatherDisplay:10.37,2013-04-27 20:04:00,
2013-04-27 15:09:00,72.5,51.1,30.08,SSW,205,8.1,8.1,47,0.00,CLR,OVC,0.00,0.0,WeatherDisplay:10.37,2013-04-27 20:09:00,
2013-04-27 15:14:00,71.8,50.5,30.05,SSE,147,3.5,3.5,47,0.00,CLR,OVC,0.00,0.0,WeatherDisplay:10.37,2013-04-27 20:14:00,
2013-04-27 15:19:00,71.6,50.3,30.05,SE,138,5.8,5.8,47,0.00,CLR,OVC,0.00,0.0,WeatherDisplay:10.37,2013-04-27 20:19:00,
2013-04-27 15:24:00,71.8,50.5,30.05,South,182,8.1,8.1,47,0.00,CLR,OVC,0.00,0.0,WeatherDisplay:10.37,2013-04-27 20:24:00,
2013-04-27 15:29:00,72.0,50.6,30.05,WSW,239,5.8,7.2,47,0.00,CLR,OVC,0.00,0.0,WeatherDisplay:10.37,2013-04-27 20:29:00,
2013-04-27 15:34:00,71.6,50.3,30.05,South,177,6.9,6.9,47,0.00,CLR,OVC,0.00,0.0,WeatherDisplay:10.37,2013-04-27 20:34:00,
2013-04-27 15:40:00,70.7,50.0,30.05,SSW,207,5.8,5.8,48,0.00,CLR,OVC,0.00,0.0,WeatherDisplay:10.37,2013-04-27 20:40:00,
2013-04-27 15:45:00,70.0,49.4,30.05,South,188,8.1,8.1,48,0.00,CLR,OVC,0.00,0.0,WeatherDisplay:10.37,2013-04-27 20:45:00,
2013-04-27 15:50:00,70.0,49.4,30.05,SSW,195,5.8,5.8,48,0.00,CLR,OVC,0.00,0.0,WeatherDisplay:10.37,2013-04-27 20:50:00,
2013-04-27 15:55:00,70.7,50.0,30.05,SSE,166,9.2,9.2,48,0.00,CLR,OVC,0.00,0.0,WeatherDisplay:10.37,2013-04-27 20:55:00,
2013-04-27 16:00:00,71.4,50.7,30.05,SSW,202,11.5,11.5,48,0.00,CLR,OVC,0.00,0.0,WeatherDisplay:10.37,2013-04-27 21:00:00,
2013-04-27 16:05:00,71.1,50.4,30.05,South,173,5.8,5.8,48,0.00,CLR,OVC,0.00,0.0,WeatherDisplay:10.37,2013-04-27 21:05:00,
2013-04-27 16:10:00,70.5,49.9,30.05,SW,218,4.6,4.6,48,0.00,CLR,OVC,0.00,0.0,WeatherDisplay:10.37,2013-04-27 21:10:00,
2013-04-27 16:15:00,70.5,49.9,30.05,SW,236,9.2,9.2,48,0.00,CLR,OVC,0.00,0.0,WeatherDisplay:10.37,2013-04-27 21:15:00,
2013-04-27 16:20:00,70.5,49.9,30.05,SSW,195,9.2,9.2,48,0.00,CLR,OVC,0.00,0.0,WeatherDisplay:10.37,2013-04-27 21:20:00,
2013-04-27 16:25:00,70.2,49.5,30.05,SSE,166,9.2,9.2,48,0.00,CLR,OVC,0.00,0.0,WeatherDisplay:10.37,2013-04-27 21:25:00,
2013-04-27 16:30:00,69.6,49.1,30.05,SSW,199,9.2,9.2,48,0.00,CLR,OVC,0.00,0.0,WeatherDisplay:10.37,2013-04-27 21:30:00,
2013-04-27 16:35:00,69.3,48.7,30.05,SW,218,9.2,9.2,48,0.00,CLR,OVC,0.00,0.0,WeatherDisplay:10.37,2013-04-27 21:35:00,
2013-04-27 16:40:00,69.1,49.1,30.05,SSE,168,8.1,8.1,49,0.00,CLR,OVC,0.00,0.0,WeatherDisplay:10.37,2013-04-27 21:40:00,
2013-04-27 16:45:00,69.1,49.1,30.05,South,181,5.8,7.2,49,0.00,CLR,OVC,0.00,0.0,WeatherDisplay:10.37,2013-04-27 21:45:00,
2013-04-27 16:50:00,68.9,48.9,30.05,SSW,200,8.1,8.1,49,0.00,CLR,OVC,0.00,0.0,WeatherDisplay:10.37,2013-04-27 21:50:00,
2013-04-27 16:55:00,68.9,48.9,30.05,SSW,192,9.2,9.2,49,0.00,CLR,OVC,0.00,0.0,WeatherDisplay:10.37,2013-04-27 21:55:00,
2013-04-27 17:00:00,69.1,49.1,30.05,South,176,8.1,8.1,49,0.00,CLR,OVC,0.00,0.0,WeatherDisplay:10.37,2013-04-27 22:00:00,
2013-04-27 17:04:00,69.3,49.3,30.05,SSW,200,10.4,10.4,49,0.00,FEW,OVC,0.00,0.0,WeatherDisplay:10.37,2013-04-27 22:04:00,
2013-04-27 17:09:00,69.8,49.8,30.05,SW,217,10.4,10.4,49,0.00,FEW,OVC,0.00,0.0,WeatherDisplay:10.37,2013-04-27 22:09:00,
2013-04-27 17:14:00,69.8,49.2,30.02,South,183,10.4,10.4,48,0.00,FEW,OVC,0.00,0.0,WeatherDisplay:10.37,2013-04-27 22:14:00,
2013-04-27 17:19:00,69.4,49.4,30.02,SW,223,8.1,8.1,49,0.00,FEW,OVC,0.00,0.0,WeatherDisplay:10.37,2013-04-27 22:19:00,
2013-04-27 17:24:00,69.3,49.3,30.02,SSW,206,8.1,8.1,49,0.00,FEW,OVC,0.00,0.0,WeatherDisplay:10.37,2013-04-27 22:24:00,
2013-04-27 17:29:00,69.1,49.1,30.02,South,185,8.1,8.1,49,0.00,FEW,OVC,0.00,0.0,WeatherDisplay:10.37,2013-04-27 22:29:00,
2013-04-27 17:34:00,68.9,48.9,30.02,SSE,165,9.2,9.2,49,0.00,FEW,OVC,0.00,0.0,WeatherDisplay:10.37,2013-04-27 22:34:00,
2013-04-27 17:39:00,68.5,48.6,30.02,SSW,210,8.1,8.1,49,0.00,FEW,OVC,0.00,0.0,WeatherDisplay:10.37,2013-04-27 22:39:00,
2013-04-27 17:44:00,68.5,48.6,30.02,SSW,213,5.8,5.8,49,0.00,FEW,OVC,0.00,0.0,WeatherDisplay:10.37,2013-04-27 22:44:00,
2013-04-27 17:49:00,68.5,49.2,30.02,South,182,8.1,8.1,50,0.00,FEW,OVC,0.00,0.0,WeatherDisplay:10.37,2013-04-27 22:49:00,
2013-04-27 17:54:00,68.5,48.6,30.02,SW,220,5.8,6.3,49,0.00,FEW,OVC,0.00,0.0,WeatherDisplay:10.37,2013-04-27 22:54:00,
2013-04-27 17:59:00,68.5,48.6,30.02,SW,236,10.4,10.4,49,0.00,FEW,OVC,0.00,0.0,WeatherDisplay:10.37,2013-04-27 22:59:00,
2013-04-27 18:04:00,68.2,48.8,30.02,South,189,5.8,6.3,50,0.00,CLR,OVC,0.00,0.0,WeatherDisplay:10.37,2013-04-27 23:04:00,
2013-04-27 18:09:00,67.8,48.5,30.02,SSE,158,8.1,8.1,50,0.00,CLR,OVC,0.00,0.0,WeatherDisplay:10.37,2013-04-27 23:09:00,
2013-04-27 18:14:00,67.5,48.2,30.02,SSW,196,8.1,8.1,50,0.00,CLR,OVC,0.00,0.0,WeatherDisplay:10.37,2013-04-27 23:14:00,
2013-04-27 18:19:00,67.3,48.0,30.02,SW,225,10.4,10.4,50,0.00,CLR,OVC,0.00,0.0,WeatherDisplay:10.37,2013-04-27 23:19:00,
2013-04-27 18:24:00,67.3,48.0,30.02,South,189,8.1,8.1,50,0.00,CLR,OVC,0.00,0.0,WeatherDisplay:10.37,2013-04-27 23:24:00,
2013-04-27 18:29:00,67.6,48.3,30.02,South,188,8.1,8.1,50,0.00,CLR,OVC,0.00,0.0,WeatherDisplay:10.37,2013-04-27 23:29:00,
2013-04-27 18:34:00,67.6,48.3,30.02,South,169,5.8,6.7,50,0.00,CLR,OVC,0.00,0.0,WeatherDisplay:10.37,2013-04-27 23:34:00,
2013-04-27 18:39:00,67.5,48.2,30.02,SSW,210,10.4,10.4,50,0.00,CLR,OVC,0.00,0.0,WeatherDisplay:10.37,2013-04-27 23:39:00,
2013-04-27 18:44:00,67.1,48.4,30.02,SSW,208,10.4,10.4,51,0.00,CLR,OVC,0.00,0.0,WeatherDisplay:10.37,2013-04-27 23:44:00,
2013-04-27 18:49:00,66.9,48.2,30.02,SSW,197,10.4,10.4,51,0.00,CLR,OVC,0.00,0.0,WeatherDisplay:10.37,2013-04-27 23:49:00,
2013-04-27 18:54:00,66.6,47.9,30.02,SSW,202,5.8,5.8,51,0.00,CLR,OVC,0.00,0.0,WeatherDisplay:10.37,2013-04-27 23:54:00,
2013-04-27 18:59:00,66.2,48.0,30.02,South,184,5.8,5.8,52,0.00,CLR,OVC,0.00,0.0,WeatherDisplay:10.37,2013-04-27 23:59:00,
2013-04-27 19:04:00,65.8,47.7,30.02,SSW,196,5.8,5.8,52,0.00,CLR,OVC,0.00,0.0,WeatherDisplay:10.37,2013-04-28 00:04:00,
2013-04-27 19:09:00,65.5,47.9,30.02,SW,219,8.1,8.1,53,0.00,CLR,OVC,0.00,0.0,WeatherDisplay:10.37,2013-04-28 00:09:00,
2013-04-27 19:14:00,64.9,47.9,30.02,WSW,247,6.9,6.9,54,0.00,CLR,OVC,0.00,0.0,WeatherDisplay:10.37,2013-04-28 00:14:00,
2013-04-27 19:19:00,64.4,47.9,30.02,SSW,198,9.2,9.2,55,0.00,CLR,OVC,0.00,0.0,WeatherDisplay:10.37,2013-04-28 00:19:00,
2013-04-27 19:24:00,63.9,47.9,30.02,South,176,5.8,5.8,56,0.00,CLR,OVC,0.00,0.0,WeatherDisplay:10.37,2013-04-28 00:24:00,
2013-04-27 19:29:00,63.3,48.3,30.02,SSW,198,8.1,8.1,58,0.00,CLR,OVC,0.00,0.0,WeatherDisplay:10.37,2013-04-28 00:29:00,
2013-04-27 19:34:00,62.8,47.8,30.02,SSW,208,4.6,4.6,58,0.00,CLR,OVC,0.00,0.0,WeatherDisplay:10.37,2013-04-28 00:34:00,
2013-04-27 19:39:00,62.2,47.7,30.02,SW,221,5.8,5.8,59,0.00,CLR,OVC,0.00,0.0,WeatherDisplay:10.37,2013-04-28 00:39:00,
2013-04-27 19:44:00,61.9,47.4,30.02,South,175,5.8,5.8,59,0.00,CLR,OVC,0.00,0.0,WeatherDisplay:10.37,2013-04-28 00:44:00,
2013-04-27 19:49:00,61.3,46.9,30.02,SSE,158,9.2,9.2,59,0.00,CLR,OVC,0.00,0.0,WeatherDisplay:10.37,2013-04-28 00:49:00,
2013-04-27 19:54:00,61.0,46.5,30.02,South,184,5.8,5.8,59,0.00,CLR,OVC,0.00,0.0,WeatherDisplay:10.37,2013-04-28 00:54:00,
2013-04-27 19:59:00,61.0,46.5,30.02,South,184,5.8,5.8,59,0.00,CLR,OVC,0.00,0.0,WeatherDisplay:10.37,2013-04-28 00:59:00,
2013-04-27 20:04:00,60.1,46.1,30.02,SW,215,5.8,5.8,60,0.00,CLR,OVC,0.00,0.0,WeatherDisplay:10.37,2013-04-28 01:04:00,
2013-04-27 20:09:00,59.7,46.2,30.02,SSW,206,5.8,5.8,61,0.00,CLR,OVC,0.00,0.0,WeatherDisplay:10.37,2013-04-28 01:09:00,
2013-04-27 20:14:00,59.4,45.9,30.02,SSE,158,5.8,5.8,61,0.00,CLR,OVC,0.00,0.0,WeatherDisplay:10.37,2013-04-28 01:14:00,
2013-04-27 20:19:00,59.0,45.6,30.02,South,180,5.8,5.8,61,0.00,CLR,OVC,0.00,0.0,WeatherDisplay:10.37,2013-04-28 01:19:00,
2013-04-27 20:24:00,58.5,45.5,30.02,South,184,5.8,5.8,62,0.00,CLR,OVC,0.00,0.0,WeatherDisplay:10.37,2013-04-28 01:24:00,
2013-04-27 20:29:00,58.3,45.3,30.02,South,171,3.5,4.0,62,0.00,CLR,OVC,0.00,0.0,WeatherDisplay:10.37,2013-04-28 01:29:00,
2013-04-27 20:34:00,57.9,45.4,30.02,South,184,3.5,4.0,63,0.00,CLR,OVC,0.00,0.0,WeatherDisplay:10.37,2013-04-28 01:34:00,
2013-04-27 20:39:00,57.7,45.2,30.02,SSW,193,5.8,5.8,63,0.00,CLR,OVC,0.00,0.0,WeatherDisplay:10.37,2013-04-28 01:39:00,
2013-04-27 20:44:00,57.6,45.1,30.02,SSW,202,5.8,5.8,63,0.00,CLR,OVC,0.00,0.0,WeatherDisplay:10.37,2013-04-28 01:44:00,
2013-04-27 20:49:00,57.2,45.1,30.02,South,180,4.6,4.6,64,0.00,CLR,OVC,0.00,0.0,WeatherDisplay:10.37,2013-04-28 01:49:00,
2013-04-27 20:54:00,57.2,45.1,30.02,SSW,207,5.8,5.8,64,0.00,CLR,OVC,0.00,0.0,WeatherDisplay:10.37,2013-04-28 01:54:00,
2013-04-27 20:59:00,56.8,44.8,30.02,SW,218,5.8,5.8,64,0.00,CLR,OVC,0.00,0.0,WeatherDisplay:10.37,2013-04-28 01:59:00,
2013-04-27 21:04:00,56.7,45.0,30.02,South,179,3.5,3.6,65,0.00,CLR,OVC,0.00,0.0,WeatherDisplay:10.37,2013-04-28 02:04:00,
2013-04-27 21:09:00,56.3,44.7,30.02,South,186,3.5,3.5,65,0.00,CLR,OVC,0.00,0.0,WeatherDisplay:10.37,2013-04-28 02:09:00,
2013-04-27 21:14:00,55.9,44.3,30.02,South,183,2.7,2.7,65,0.00,CLR,OVC,0.00,0.0,WeatherDisplay:10.37,2013-04-28 02:14:00,
2013-04-27 21:19:00,55.8,44.2,30.02,SSE,167,4.9,4.9,65,0.00,CLR,OVC,0.00,0.0,WeatherDisplay:10.37,2013-04-28 02:19:00,
2013-04-27 21:24:00,55.4,44.2,30.02,South,184,4.6,4.6,66,0.00,CLR,OVC,0.00,0.0,WeatherDisplay:10.37,2013-04-28 02:24:00,
2013-04-27 21:29:00,55.2,44.1,30.02,South,183,3.5,0.0,66,0.00,CLR,OVC,0.00,0.0,WeatherDisplay:10.37,2013-04-28 02:29:00,
2013-04-27 21:34:00,55.0,44.3,30.02,SSW,200,3.5,3.5,67,0.00,CLR,OVC,0.00,0.0,WeatherDisplay:10.37,2013-04-28 02:34:00,
2013-04-27 21:39:00,54.9,44.1,30.02,South,191,2.3,2.7,67,0.00,CLR,OVC,0.00,0.0,WeatherDisplay:10.37,2013-04-28 02:39:00,
2013-04-27 21:44:00,54.7,43.9,30.02,South,191,2.7,2.7,67,0.00,CLR,OVC,0.00,0.0,WeatherDisplay:10.37,2013-04-28 02:44:00,
2013-04-27 21:49:00,54.5,43.8,30.02,SSW,209,3.5,3.5,67,0.00,CLR,OVC,0.00,0.0,WeatherDisplay:10.37,2013-04-28 02:49:00,
2013-04-27 21:54:00,54.1,43.4,30.02,SW,227,3.5,3.5,67,0.00,CLR,OVC,0.00,0.0,WeatherDisplay:10.37,2013-04-28 02:54:00,
2013-04-27 21:59:00,54.0,43.6,30.02,SW,227,2.3,0.0,68,0.00,CLR,OVC,0.00,0.0,WeatherDisplay:10.37,2013-04-28 02:59:00,
2013-04-27 22:04:00,53.6,43.3,30.02,SW,227,0.0,0.0,68,0.00,CLR,OVC,0.00,0.0,WeatherDisplay:10.37,2013-04-28 03:04:00,
2013-04-27 22:09:00,53.2,43.3,30.02,SW,227,0.0,0.0,69,0.00,CLR,OVC,0.00,0.0,WeatherDisplay:10.37,2013-04-28 03:09:00,
2013-04-27 22:14:00,52.9,43.0,30.02,SW,227,0.0,0.0,69,0.00,CLR,OVC,0.00,0.0,WeatherDisplay:10.37,2013-04-28 03:14:00,
2013-04-27 22:19:00,52.3,42.8,30.02,SSW,198,0.0,0.0,70,0.00,CLR,OVC,0.00,0.0,WeatherDisplay:10.37,2013-04-28 03:19:00,
2013-04-27 22:24:00,51.8,42.3,30.02,SSW,198,0.0,0.0,70,0.00,CLR,OVC,0.00,0.0,WeatherDisplay:10.37,2013-04-28 03:24:00,
2013-04-27 22:29:00,51.3,42.2,30.02,SSW,198,0.0,0.0,71,0.00,CLR,OVC,0.00,0.0,WeatherDisplay:10.37,2013-04-28 03:29:00,
2013-04-27 22:34:00,50.7,42.0,30.02,SSW,198,0.0,0.0,72,0.00,CLR,OVC,0.00,0.0,WeatherDisplay:10.37,2013-04-28 03:34:00,
2013-04-27 22:39:00,50.4,41.7,30.02,SSW,198,0.0,0.0,72,0.00,CLR,OVC,0.00,0.0,WeatherDisplay:10.37,2013-04-28 03:39:00,
2013-04-27 22:44:00,50.0,41.7,30.02,SSW,198,0.0,0.0,73,0.00,CLR,OVC,0.00,0.0,WeatherDisplay:10.37,2013-04-28 03:44:00,
2013-04-27 22:49:00,49.6,41.7,30.02,SSW,198,0.0,0.0,74,0.00,CLR,OVC,0.00,0.0,WeatherDisplay:10.37,2013-04-28 03:49:00,
2013-04-27 22:54:00,49.1,41.2,30.02,SSW,198,0.0,0.0,74,0.00,CLR,OVC,0.00,0.0,WeatherDisplay:10.37,2013-04-28 03:54:00,
2013-04-27 22:59:00,48.7,41.2,30.02,SSW,198,0.0,0.0,75,0.00,CLR,OVC,0.00,0.0,WeatherDisplay:10.37,2013-04-28 03:59:00,
2013-04-27 23:01:00,48.7,41.2,30.02,SSW,198,0.0,0.0,75,0.00,CLR,OVC,0.00,0.0,WeatherDisplay:10.37,2013-04-28 04:01:00,
2013-04-27 23:06:00,48.4,41.2,30.02,SSW,198,0.0,0.0,76,0.00,CLR,OVC,0.00,0.0,WeatherDisplay:10.37,2013-04-28 04:06:00,
2013-04-27 23:11:00,48.2,41.0,30.02,SSW,198,0.0,0.0,76,0.00,CLR,OVC,0.00,0.0,WeatherDisplay:10.37,2013-04-28 04:11:00,
2013-04-27 23:16:00,47.8,41.0,30.02,SSW,198,0.0,0.0,77,0.00,CLR,OVC,0.00,0.0,WeatherDisplay:10.37,2013-04-28 04:16:00,
2013-04-27 23:21:00,47.7,41.1,30.02,SSW,198,0.0,0.0,78,0.00,CLR,OVC,0.00,0.0,WeatherDisplay:10.37,2013-04-28 04:21:00,
2013-04-27 23:26:00,47.3,41.1,30.02,SSW,198,0.0,0.0,79,0.00,CLR,OVC,0.00,0.0,WeatherDisplay:10.37,2013-04-28 04:26:00,
2013-04-27 23:31:00,47.1,40.9,30.02,SSW,198,0.0,0.0,79,0.00,CLR,OVC,0.00,0.0,WeatherDisplay:10.37,2013-04-28 04:31:00,
2013-04-27 23:36:00,46.9,41.1,30.02,SSW,198,0.0,0.0,80,0.00,CLR,OVC,0.00,0.0,WeatherDisplay:10.37,2013-04-28 04:36:00,
2013-04-27 23:41:00,46.9,41.4,30.02,SSW,198,0.0,0.0,81,0.00,CLR,OVC,0.00,0.0,WeatherDisplay:10.37,2013-04-28 04:41:00,
2013-04-27 23:46:00,46.9,41.7,30.02,SSW,198,0.0,0.0,82,0.00,CLR,OVC,0.00,0.0,WeatherDisplay:10.37,2013-04-28 04:46:00,
2013-04-27 23:51:00,47.1,41.9,30.02,SSW,198,0.0,0.0,82,0.00,CLR,OVC,0.00,0.0,WeatherDisplay:10.37,2013-04-28 04:51:00,
2013-04-27 23:56:00,47.3,42.4,30.02,SSW,198,0.0,0.0,83,0.00,CLR,OVC,0.00,0.0,WeatherDisplay:10.37,2013-04-28 04:56:00,